Time,TemperatureF,DewpointF,PressureIn,WindDirection,WindDirectionDegrees,WindSpeedMPH,WindSpeedGustMPH,Humidity,HourlyPrecipIn,Conditions,Clouds,dailyrainin,SolarRadiationWatts/m^2,SoftwareType,DateUTC
2013-03-08 00:00:00,56.4,52.6,30.18,NNW,329,0.0,1.0,87,0.00,,CLR,0.00,0.00,VWS V14.01,2013-03-08 05:00:00,
2013-03-08 00:01:00,56.4,52.6,30.18,NNW,329,0.0,0.0,87,0.00,,CLR,0.00,0.00,VWS V14.01,2013-03-08 05:01:00,
2013-03-08 00:05:00,56.6,53.4,30.17,NNW,329,2.0,2.0,89,0.00,,CLR,0.00,0.00,VWS V14.01,2013-03-08 05:05:00,
2013-03-08 00:06:00,56.4,52.6,30.18,NNW,329,0.0,0.0,87,0.00,,CLR,0.00,0.00,VWS V14.01,2013-03-08 05:06:00,
2013-03-08 00:10:00,56.5,53.3,30.17,NNW,329,1.0,2.0,89,0.00,,CLR,0.00,0.00,VWS V14.01,2013-03-08 05:10:00,
2013-03-08 00:11:00,56.4,52.6,30.18,NNW,329,1.0,2.0,87,0.00,,CLR,0.00,0.00,VWS V14.01,2013-03-08 05:11:00,
2013-03-08 00:15:00,56.5,53.6,30.17,NNW,329,1.0,2.0,90,0.00,,CLR,0.00,0.00,VWS V14.01,2013-03-08 05:15:00,
2013-03-08 00:16:00,57.0,53.2,30.18,NNW,329,1.0,2.0,87,0.00,,CLR,0.00,0.00,VWS V14.01,2013-03-08 05:16:00,
2013-03-08 00:20:00,56.4,53.5,30.17,NNW,329,1.0,1.0,90,0.00,,CLR,0.00,0.00,VWS V14.01,2013-03-08 05:20:00,
2013-03-08 00:21:00,57.1,53.3,30.17,NNW,329,0.0,2.0,87,0.00,,CLR,0.00,0.00,VWS V14.01,2013-03-08 05:21:00,
2013-03-08 00:25:00,56.4,53.5,30.17,NW,309,3.0,4.0,90,0.00,,CLR,0.00,0.00,VWS V14.01,2013-03-08 05:25:00,
2013-03-08 00:26:00,57.1,53.3,30.17,NNW,329,0.0,0.0,87,0.00,,CLR,0.00,0.00,VWS V14.01,2013-03-08 05:26:00,
2013-03-08 00:30:00,56.4,53.5,30.17,NW,309,2.0,2.0,90,0.00,,CLR,0.00,0.00,VWS V14.01,2013-03-08 05:30:00,
2013-03-08 00:31:00,57.0,53.5,30.17,NNW,329,0.0,0.0,88,0.00,,CLR,0.00,0.00,VWS V14.01,2013-03-08 05:31:00,
2013-03-08 00:35:00,56.5,53.6,30.17,NNW,334,2.0,3.0,90,0.00,,CLR,0.00,0.00,VWS V14.01,2013-03-08 05:35:00,
2013-03-08 00:36:00,57.0,53.5,30.17,NNW,329,1.0,1.0,88,0.00,,CLR,0.00,0.00,VWS V14.01,2013-03-08 05:36:00,
2013-03-08 00:40:00,56.6,53.7,30.17,NNW,334,1.0,2.0,90,0.00,,CLR,0.00,0.00,VWS V14.01,2013-03-08 05:40:00,
2013-03-08 00:41:00,57.0,53.5,30.17,NNW,329,1.0,1.0,88,0.00,,CLR,0.00,0.00,VWS V14.01,2013-03-08 05:41:00,
2013-03-08 00:45:00,56.6,53.7,30.17,NNW,334,2.0,2.0,90,0.00,,CLR,0.00,0.00,VWS V14.01,2013-03-08 05:45:00,
2013-03-08 00:46:00,56.9,53.4,30.17,NNW,329,1.0,2.0,88,0.00,,CLR,0.00,0.00,VWS V14.01,2013-03-08 05:46:00,
2013-03-08 00:50:00,56.6,53.7,30.17,NNW,334,1.0,3.0,90,0.00,,CLR,0.00,0.00,VWS V14.01,2013-03-08 05:50:00,
2013-03-08 00:51:00,56.8,53.6,30.17,NNW,329,1.0,2.0,89,0.00,,CLR,0.00,0.00,VWS V14.01,2013-03-08 05:51:00,
2013-03-08 00:55:00,56.5,53.6,30.17,NNW,334,1.0,2.0,90,0.00,,CLR,0.00,0.00,VWS V14.01,2013-03-08 05:55:00,
2013-03-08 00:56:00,56.8,53.6,30.17,NNW,329,1.0,2.0,89,0.00,,CLR,0.00,0.00,VWS V14.01,2013-03-08 05:56:00,
2013-03-08 01:00:00,56.5,53.6,30.17,NNW,334,1.0,2.0,90,0.00,,CLR,0.00,0.00,VWS V14.01,2013-03-08 06:00:00,
2013-03-08 01:01:00,56.7,53.5,30.17,NNW,329,1.0,2.0,89,0.00,,CLR,0.00,0.00,VWS V14.01,2013-03-08 06:01:00,
2013-03-08 01:05:00,56.5,53.6,30.17,NNW,334,2.0,2.0,90,0.00,,CLR,0.00,0.00,VWS V14.01,2013-03-08 06:05:00,
2013-03-08 01:06:00,56.6,53.4,30.17,NNW,329,1.0,2.0,89,0.00,,CLR,0.00,0.00,VWS V14.01,2013-03-08 06:06:00,
2013-03-08 01:10:00,56.3,53.4,30.16,NNW,331,2.0,4.0,90,0.00,,CLR,0.00,0.00,VWS V14.01,2013-03-08 06:10:00,
2013-03-08 01:11:00,56.5,53.3,30.17,NNW,329,1.0,2.0,89,0.00,,CLR,0.00,0.00,VWS V14.01,2013-03-08 06:11:00,
2013-03-08 01:15:00,56.3,53.4,30.16,NNW,344,1.0,3.0,90,0.00,,CLR,0.00,0.00,VWS V14.01,2013-03-08 06:15:00,
2013-03-08 01:16:00,56.5,53.6,30.17,NNW,329,1.0,2.0,90,0.00,,CLR,0.00,0.00,VWS V14.01,2013-03-08 06:16:00,
2013-03-08 01:20:00,56.2,53.3,30.16,NNW,338,1.0,3.0,90,0.00,,CLR,0.00,0.00,VWS V14.01,2013-03-08 06:20:00,
2013-03-08 01:21:00,56.4,53.5,30.17,NNW,329,0.0,2.0,90,0.00,,CLR,0.00,0.00,VWS V14.01,2013-03-08 06:21:00,
2013-03-08 01:25:00,56.1,53.2,30.16,NNW,333,3.0,4.0,90,0.00,,CLR,0.00,0.00,VWS V14.01,2013-03-08 06:25:00,
2013-03-08 01:26:00,56.4,53.5,30.17,NW,309,0.0,4.0,90,0.00,,CLR,0.00,0.00,VWS V14.01,2013-03-08 06:26:00,
2013-03-08 01:30:00,56.0,53.1,30.16,NNW,327,2.0,3.0,90,0.00,,CLR,0.00,0.00,VWS V14.01,2013-03-08 06:30:00,
2013-03-08 01:31:00,56.4,53.5,30.17,NW,309,2.0,4.0,90,0.00,,CLR,0.00,0.00,VWS V14.01,2013-03-08 06:31:00,
2013-03-08 01:35:00,55.9,52.7,30.16,NNW,333,2.0,4.0,89,0.00,,CLR,0.00,0.00,VWS V14.01,2013-03-08 06:35:00,
2013-03-08 01:36:00,56.6,53.7,30.17,NNW,334,1.0,3.0,90,0.00,,CLR,0.00,0.00,VWS V14.01,2013-03-08 06:36:00,
2013-03-08 01:40:00,55.7,52.5,30.16,NW,323,2.0,3.0,89,0.00,,CLR,0.00,0.00,VWS V14.01,2013-03-08 06:40:00,
2013-03-08 01:41:00,56.6,53.7,30.17,NNW,334,1.0,2.0,90,0.00,,CLR,0.00,0.00,VWS V14.01,2013-03-08 06:41:00,
2013-03-08 01:45:00,55.5,52.3,30.16,NW,308,3.0,5.0,89,0.00,,CLR,0.00,0.00,VWS V14.01,2013-03-08 06:45:00,
2013-03-08 01:46:00,56.6,53.7,30.17,NNW,334,2.0,3.0,90,0.00,,CLR,0.00,0.00,VWS V14.01,2013-03-08 06:46:00,
2013-03-08 01:50:00,55.4,52.2,30.16,NNW,331,3.0,4.0,89,0.00,,CLR,0.00,0.00,VWS V14.01,2013-03-08 06:50:00,
2013-03-08 01:51:00,56.6,53.7,30.17,NNW,334,1.0,2.0,90,0.00,,CLR,0.00,0.00,VWS V14.01,2013-03-08 06:51:00,
2013-03-08 01:55:00,55.1,52.2,30.16,NW,323,2.0,4.0,90,0.00,,CLR,0.00,0.00,VWS V14.01,2013-03-08 06:55:00,
2013-03-08 01:56:00,56.5,53.6,30.17,NNW,334,0.0,2.0,90,0.00,,CLR,0.00,0.00,VWS V14.01,2013-03-08 06:56:00,
2013-03-08 02:00:00,55.0,52.1,30.15,NNW,331,2.0,3.0,90,0.00,,CLR,0.00,0.00,VWS V14.01,2013-03-08 07:00:00,
2013-03-08 02:01:00,56.5,53.6,30.17,NNW,334,1.0,2.0,90,0.00,,CLR,0.00,0.00,VWS V14.01,2013-03-08 07:01:00,
2013-03-08 02:05:00,54.9,52.0,30.15,NNW,327,1.0,4.0,90,0.00,,CLR,0.00,0.00,VWS V14.01,2013-03-08 07:05:00,
2013-03-08 02:06:00,56.5,53.6,30.17,NNW,334,1.0,2.0,90,0.00,,CLR,0.00,0.00,VWS V14.01,2013-03-08 07:06:00,
2013-03-08 02:10:00,54.7,51.8,30.15,NNW,327,2.0,3.0,90,0.00,,CLR,0.00,0.00,VWS V14.01,2013-03-08 07:10:00,
2013-03-08 02:11:00,56.4,53.5,30.16,NNW,331,1.0,4.0,90,0.00,,CLR,0.00,0.00,VWS V14.01,2013-03-08 07:11:00,
2013-03-08 02:15:00,54.6,51.7,30.15,NNW,329,3.0,3.0,90,0.00,,CLR,0.00,0.00,VWS V14.01,2013-03-08 07:15:00,
2013-03-08 02:16:00,56.3,53.4,30.16,NW,325,4.0,5.0,90,0.00,,CLR,0.00,0.00,VWS V14.01,2013-03-08 07:16:00,
2013-03-08 02:20:00,54.5,51.9,30.15,NNW,329,3.0,3.0,91,0.00,,CLR,0.00,0.00,VWS V14.01,2013-03-08 07:20:00,
2013-03-08 02:21:00,56.1,53.2,30.16,NNW,335,2.0,3.0,90,0.00,,CLR,0.00,0.00,VWS V14.01,2013-03-08 07:21:00,
2013-03-08 02:25:00,54.5,51.9,30.15,NNW,329,1.0,2.0,91,0.00,,CLR,0.00,0.00,VWS V14.01,2013-03-08 07:25:00,
2013-03-08 02:26:00,56.1,53.2,30.16,NNW,335,2.0,5.0,90,0.00,,CLR,0.00,0.00,VWS V14.01,2013-03-08 07:26:00,
2013-03-08 02:30:00,54.3,51.7,30.15,NW,323,1.0,2.0,91,0.00,,CLR,0.00,0.00,VWS V14.01,2013-03-08 07:30:00,
2013-03-08 02:31:00,56.1,53.2,30.16,North,360,5.0,6.0,90,0.00,,CLR,0.00,0.00,VWS V14.01,2013-03-08 07:31:00,
2013-03-08 02:35:00,54.1,51.5,30.15,NNW,331,1.0,2.0,91,0.00,,CLR,0.00,0.00,VWS V14.01,2013-03-08 07:35:00,
2013-03-08 02:36:00,55.9,52.7,30.16,NNW,340,4.0,6.0,89,0.00,,FEW037,0.00,0.00,VWS V14.01,2013-03-08 07:36:00,
2013-03-08 02:40:00,54.1,51.5,30.15,NW,321,1.0,4.0,91,0.00,,CLR,0.00,0.00,VWS V14.01,2013-03-08 07:40:00,
2013-03-08 02:41:00,55.7,52.5,30.16,NW,326,2.0,3.0,89,0.00,,FEW037,0.00,0.00,VWS V14.01,2013-03-08 07:41:00,
2013-03-08 02:45:00,54.0,51.4,30.15,NW,321,2.0,3.0,91,0.00,,CLR,0.00,0.00,VWS V14.01,2013-03-08 07:45:00,
2013-03-08 02:46:00,55.5,52.3,30.16,NNW,336,3.0,5.0,89,0.00,,FEW037,0.00,0.00,VWS V14.01,2013-03-08 07:46:00,
2013-03-08 02:50:00,53.9,51.3,30.15,NW,325,2.0,3.0,91,0.00,,CLR,0.00,0.00,VWS V14.01,2013-03-08 07:50:00,
2013-03-08 02:51:00,55.3,52.4,30.16,NNW,344,3.0,4.0,90,0.00,,FEW037,0.00,0.00,VWS V14.01,2013-03-08 07:51:00,
2013-03-08 02:55:00,55.1,52.2,30.15,NW,323,3.0,4.0,90,0.00,,FEW037,0.00,0.00,VWS V14.01,2013-03-08 07:55:00,
2013-03-08 03:00:00,55.0,52.1,30.15,NNW,331,3.0,3.0,90,0.00,,FEW037,0.00,0.00,VWS V14.01,2013-03-08 08:00:00,
2013-03-08 03:05:00,54.8,51.9,30.15,NNW,327,0.0,2.0,90,0.00,,FEW037,0.00,0.00,VWS V14.01,2013-03-08 08:05:00,
2013-03-08 03:10:00,54.7,51.8,30.15,NNW,327,1.0,2.0,90,0.00,,FEW037,0.00,0.00,VWS V14.01,2013-03-08 08:10:00,
2013-03-08 03:15:00,53.7,51.4,30.15,NNW,333,0.0,0.0,92,0.00,,CLR,0.00,0.00,VWS V14.01,2013-03-08 08:15:00,
2013-03-08 03:16:00,54.6,51.7,30.15,NNW,327,2.0,3.0,90,0.00,,FEW037,0.00,0.00,VWS V14.01,2013-03-08 08:16:00,
2013-03-08 03:20:00,53.7,51.4,30.15,NNW,333,0.0,0.0,92,0.00,,CLR,0.00,0.00,VWS V14.01,2013-03-08 08:20:00,
2013-03-08 03:21:00,54.4,51.8,30.15,NNW,329,1.0,3.0,91,0.00,,FEW037,0.00,0.00,VWS V14.01,2013-03-08 08:21:00,
2013-03-08 03:25:00,53.6,51.3,30.15,NNW,333,1.0,2.0,92,0.00,,CLR,0.00,0.00,VWS V14.01,2013-03-08 08:25:00,
2013-03-08 03:26:00,54.5,51.9,30.15,NNW,329,2.0,3.0,91,0.00,,FEW037,0.00,0.00,VWS V14.01,2013-03-08 08:26:00,
2013-03-08 03:30:00,53.5,51.2,30.15,NNW,333,0.0,2.0,92,0.00,,CLR,0.00,0.00,VWS V14.01,2013-03-08 08:30:00,
2013-03-08 03:31:00,54.3,51.7,30.15,NNW,331,1.0,3.0,91,0.00,,FEW037,0.00,0.00,VWS V14.01,2013-03-08 08:31:00,
2013-03-08 03:35:00,54.1,51.5,30.15,NNW,331,0.0,2.0,91,0.00,,CLR,0.00,0.00,VWS V14.01,2013-03-08 08:35:00,
2013-03-08 03:40:00,54.1,51.5,30.15,NW,321,1.0,2.0,91,0.00,,CLR,0.00,0.00,VWS V14.01,2013-03-08 08:40:00,
2013-03-08 03:45:00,54.0,51.4,30.15,NW,325,1.0,4.0,91,0.00,,CLR,0.00,0.00,VWS V14.01,2013-03-08 08:45:00,
2013-03-08 03:50:00,53.9,51.3,30.15,NNW,336,2.0,3.0,91,0.00,,CLR,0.00,0.00,VWS V14.01,2013-03-08 08:50:00,
2013-03-08 03:55:00,53.8,51.2,30.15,NNW,336,1.0,3.0,91,0.00,,CLR,0.00,0.00,VWS V14.01,2013-03-08 08:55:00,
2013-03-08 04:00:00,53.7,51.1,30.16,NNW,342,2.0,3.0,91,0.00,,CLR,0.00,0.00,VWS V14.01,2013-03-08 09:00:00,
2013-03-08 04:05:00,53.7,51.4,30.15,NNW,342,1.0,2.0,92,0.00,,CLR,0.00,0.00,VWS V14.01,2013-03-08 09:05:00,
2013-03-08 04:10:00,53.7,51.4,30.16,NNW,333,2.0,3.0,92,0.00,,CLR,0.00,0.00,VWS V14.01,2013-03-08 09:10:00,
2013-03-08 04:15:00,53.7,51.4,30.15,NNW,333,0.0,1.0,92,0.00,,CLR,0.00,0.00,VWS V14.01,2013-03-08 09:15:00,
2013-03-08 04:20:00,53.6,51.3,30.15,NNW,333,0.0,0.0,92,0.00,,CLR,0.00,0.00,VWS V14.01,2013-03-08 09:20:00,
2013-03-08 04:25:00,53.6,51.3,30.15,NNW,333,2.0,2.0,92,0.00,,CLR,0.00,0.00,VWS V14.01,2013-03-08 09:25:00,
2013-03-08 04:30:00,53.5,51.2,30.15,NNW,333,0.0,2.0,92,0.00,,CLR,0.00,0.00,VWS V14.01,2013-03-08 09:30:00,
2013-03-08 04:35:00,53.4,51.1,30.15,NNW,333,1.0,2.0,92,0.00,,CLR,0.00,0.00,VWS V14.01,2013-03-08 09:35:00,
2013-03-08 04:40:00,53.4,51.1,30.15,NNW,333,2.0,3.0,92,0.00,,CLR,0.00,0.00,VWS V14.01,2013-03-08 09:40:00,
2013-03-08 04:45:00,53.4,51.1,30.15,NNW,333,0.0,1.0,92,0.00,,CLR,0.00,0.00,VWS V14.01,2013-03-08 09:45:00,
2013-03-08 04:50:00,53.3,51.0,30.15,NNW,333,0.0,2.0,92,0.00,,CLR,0.00,0.00,VWS V14.01,2013-03-08 09:50:00,
2013-03-08 04:55:00,53.4,51.1,30.15,NNW,333,0.0,0.0,92,0.00,,CLR,0.00,0.00,VWS V14.01,2013-03-08 09:55:00,
2013-03-08 05:00:00,53.3,51.0,30.15,NNW,333,0.0,1.0,92,0.00,,CLR,0.00,0.00,VWS V14.01,2013-03-08 10:00:00,
2013-03-08 05:05:00,53.2,50.9,30.15,NNW,333,2.0,2.0,92,0.00,,CLR,0.00,0.00,VWS V14.01,2013-03-08 10:05:00,
2013-03-08 05:10:00,53.2,50.9,30.15,NNW,333,0.0,0.0,92,0.00,,CLR,0.00,0.00,VWS V14.01,2013-03-08 10:10:00,
2013-03-08 05:15:00,53.2,50.9,30.16,NNW,333,0.0,0.0,92,0.00,,CLR,0.00,0.00,VWS V14.01,2013-03-08 10:15:00,
2013-03-08 05:20:00,53.2,50.9,30.16,NNW,333,1.0,3.0,92,0.00,,CLR,0.00,0.00,VWS V14.01,2013-03-08 10:20:00,
2013-03-08 05:25:00,53.1,50.8,30.16,NNW,333,1.0,2.0,92,0.00,,CLR,0.00,0.00,VWS V14.01,2013-03-08 10:25:00,
2013-03-08 05:30:00,53.1,50.8,30.16,NNW,332,1.0,2.0,92,0.00,,CLR,0.00,0.00,VWS V14.01,2013-03-08 10:30:00,
2013-03-08 05:35:00,53.0,50.7,30.16,NNW,332,2.0,2.0,92,0.00,,CLR,0.00,0.00,VWS V14.01,2013-03-08 10:35:00,
2013-03-08 05:40:00,53.0,50.7,30.16,NNW,332,0.0,2.0,92,0.00,,CLR,0.00,0.00,VWS V14.01,2013-03-08 10:40:00,
2013-03-08 05:45:00,53.0,50.5,30.16,NNW,332,0.0,1.0,91,0.00,,CLR,0.00,0.00,VWS V14.01,2013-03-08 10:45:00,
2013-03-08 05:50:00,52.9,50.3,30.16,NNW,332,2.0,2.0,91,0.00,,CLR,0.00,0.00,VWS V14.01,2013-03-08 10:50:00,
2013-03-08 05:55:00,52.9,50.3,30.17,NNW,332,0.0,1.0,91,0.00,,CLR,0.00,0.00,VWS V14.01,2013-03-08 10:55:00,
2013-03-08 06:00:00,52.9,50.3,30.17,NNW,332,0.0,0.0,91,0.00,,CLR,0.00,0.00,VWS V14.01,2013-03-08 11:00:00,
2013-03-08 06:05:00,52.9,50.3,30.17,NNW,333,1.0,3.0,91,0.00,,CLR,0.00,0.00,VWS V14.01,2013-03-08 11:05:00,
2013-03-08 06:10:00,52.9,50.3,30.17,NNW,333,1.0,2.0,91,0.00,,CLR,0.00,0.00,VWS V14.01,2013-03-08 11:10:00,
2013-03-08 06:15:00,52.8,50.2,30.17,NNW,333,0.0,1.0,91,0.00,,CLR,0.00,0.00,VWS V14.01,2013-03-08 11:15:00,
2013-03-08 06:20:00,52.8,50.2,30.17,NNW,333,0.0,2.0,91,0.00,,CLR,0.00,0.00,VWS V14.01,2013-03-08 11:20:00,
2013-03-08 06:25:00,52.8,50.0,30.17,NNW,333,0.0,1.0,90,0.00,,CLR,0.00,0.00,VWS V14.01,2013-03-08 11:25:00,
2013-03-08 06:30:00,52.8,50.0,30.17,NNW,333,0.0,1.0,90,0.00,,CLR,0.00,0.00,VWS V14.01,2013-03-08 11:30:00,
2013-03-08 06:35:00,52.9,50.0,30.17,NNW,333,1.0,3.0,90,0.00,,CLR,0.00,0.00,VWS V14.01,2013-03-08 11:35:00,
2013-03-08 06:40:00,53.0,49.8,30.17,NNW,340,3.0,3.0,89,0.00,,CLR,0.00,0.00,VWS V14.01,2013-03-08 11:40:00,
2013-03-08 06:45:00,53.2,50.0,30.18,NNW,342,1.0,2.0,89,0.00,,CLR,0.00,0.00,VWS V14.01,2013-03-08 11:45:00,
2013-03-08 06:50:00,53.3,49.8,30.17,NNW,340,2.0,3.0,88,0.00,,CLR,0.00,0.00,VWS V14.01,2013-03-08 11:50:00,
2013-03-08 06:55:00,53.4,49.9,30.17,NNW,340,1.0,2.0,88,0.00,,CLR,0.00,0.00,VWS V14.01,2013-03-08 11:55:00,
2013-03-08 07:00:00,53.6,49.8,30.18,NW,320,2.0,3.0,87,0.00,,CLR,0.00,0.00,VWS V14.01,2013-03-08 12:00:00,
2013-03-08 07:05:00,53.7,49.9,30.18,NNW,330,2.0,4.0,87,0.00,,CLR,0.00,0.00,VWS V14.01,2013-03-08 12:05:00,
2013-03-08 07:10:00,54.0,50.2,30.18,NNW,342,1.0,5.0,87,0.00,,CLR,0.00,0.00,VWS V14.01,2013-03-08 12:10:00,
2013-03-08 07:15:00,54.3,50.5,30.18,NNW,340,1.0,2.0,87,0.00,,CLR,0.00,0.00,VWS V14.01,2013-03-08 12:15:00,
2013-03-08 07:20:00,54.5,50.4,30.19,NNW,327,1.0,1.0,86,0.00,,CLR,0.00,0.00,VWS V14.01,2013-03-08 12:20:00,
2013-03-08 07:25:00,55.0,50.9,30.19,NNW,337,2.0,3.0,86,0.00,,CLR,0.00,0.00,VWS V14.01,2013-03-08 12:25:00,
2013-03-08 07:30:00,55.5,51.4,30.19,NNW,337,1.0,3.0,86,0.00,,CLR,0.00,0.00,VWS V14.01,2013-03-08 12:30:00,
2013-03-08 07:35:00,56.0,51.2,30.19,NNW,346,2.0,5.0,84,0.00,,CLR,0.00,0.00,VWS V14.01,2013-03-08 12:35:00,
2013-03-08 07:40:00,56.5,51.4,30.19,NNW,336,2.0,3.0,83,0.00,,CLR,0.00,0.00,VWS V14.01,2013-03-08 12:40:00,
2013-03-08 07:45:00,57.1,51.7,30.19,NNW,332,2.0,6.0,82,0.00,,CLR,0.00,0.00,VWS V14.01,2013-03-08 12:45:00,
2013-03-08 07:50:00,57.5,51.4,30.19,NNW,346,2.0,4.0,80,0.00,,CLR,0.00,0.00,VWS V14.01,2013-03-08 12:50:00,
2013-03-08 07:55:00,58.0,51.5,30.20,North,350,2.0,5.0,79,0.00,,CLR,0.00,0.00,VWS V14.01,2013-03-08 12:55:00,
2013-03-08 08:00:00,58.6,51.4,30.20,NNW,343,2.0,6.0,77,0.00,,CLR,0.00,0.00,VWS V14.01,2013-03-08 13:00:00,
2013-03-08 08:05:00,59.2,52.0,30.20,North,350,0.0,5.0,77,0.00,,CLR,0.00,0.00,VWS V14.01,2013-03-08 13:05:00,
2013-03-08 08:10:00,59.6,51.7,30.20,NNW,342,3.0,6.0,75,0.00,,CLR,0.00,0.00,VWS V14.01,2013-03-08 13:10:00,
2013-03-08 08:15:00,60.2,52.3,30.20,North,350,2.0,4.0,75,0.00,,CLR,0.00,0.00,VWS V14.01,2013-03-08 13:15:00,
2013-03-08 08:20:00,60.6,51.9,30.20,North,355,4.0,7.0,73,0.00,,CLR,0.00,0.00,VWS V14.01,2013-03-08 13:20:00,
2013-03-08 08:25:00,61.3,51.8,30.20,NNW,346,3.0,3.0,71,0.00,,CLR,0.00,0.00,VWS V14.01,2013-03-08 13:25:00,
2013-03-08 08:30:00,61.7,51.8,30.20,North,349,2.0,5.0,70,0.00,,CLR,0.00,0.00,VWS V14.01,2013-03-08 13:30:00,
2013-03-08 08:35:00,62.1,52.2,30.20,NNW,346,3.0,5.0,70,0.00,,CLR,0.00,0.00,VWS V14.01,2013-03-08 13:35:00,
2013-03-08 08:40:00,62.7,52.4,30.20,NNW,333,2.0,6.0,69,0.00,,CLR,0.00,0.00,VWS V14.01,2013-03-08 13:40:00,
2013-03-08 08:45:00,63.0,52.3,30.20,NW,321,9.0,9.0,68,0.00,,CLR,0.00,0.00,VWS V14.01,2013-03-08 13:45:00,
2013-03-08 08:50:00,63.7,52.1,30.20,North,350,2.0,9.0,66,0.00,,CLR,0.00,0.00,VWS V14.01,2013-03-08 13:50:00,
2013-03-08 08:55:00,64.0,52.4,30.20,North,9,2.0,9.0,66,0.00,,CLR,0.00,0.00,VWS V14.01,2013-03-08 13:55:00,
2013-03-08 09:00:00,64.4,52.0,30.20,North,355,3.0,8.0,64,0.00,,CLR,0.00,0.00,VWS V14.01,2013-03-08 14:00:00,
2013-03-08 09:05:00,64.6,51.7,30.20,North,350,1.0,3.0,63,0.00,,CLR,0.00,0.00,VWS V14.01,2013-03-08 14:05:00,
2013-03-08 09:10:00,65.3,51.1,30.20,NNW,345,5.0,5.0,60,0.00,,CLR,0.00,0.00,VWS V14.01,2013-03-08 14:10:00,
2013-03-08 09:15:00,65.9,51.6,30.20,NE,54,2.0,3.0,60,0.00,,CLR,0.00,0.00,VWS V14.01,2013-03-08 14:15:00,
2013-03-08 09:20:00,66.1,50.9,30.20,NNE,14,2.0,5.0,58,0.00,,CLR,0.00,0.00,VWS V14.01,2013-03-08 14:20:00,
2013-03-08 09:25:00,66.5,50.3,30.21,North,355,2.0,5.0,56,0.00,,CLR,0.00,0.00,VWS V14.01,2013-03-08 14:25:00,
2013-03-08 09:30:00,66.7,50.5,30.21,NNW,346,2.0,8.0,56,0.00,,CLR,0.00,0.00,VWS V14.01,2013-03-08 14:30:00,
2013-03-08 09:35:00,67.1,49.4,30.21,North,350,3.0,4.0,53,0.00,,CLR,0.00,0.00,VWS V14.01,2013-03-08 14:35:00,
2013-03-08 09:40:00,67.1,49.4,30.21,NNW,332,3.0,4.0,53,0.00,,CLR,0.00,0.00,VWS V14.01,2013-03-08 14:40:00,
2013-03-08 09:45:00,67.3,49.6,30.21,North,355,3.0,4.0,53,0.00,,CLR,0.00,0.00,VWS V14.01,2013-03-08 14:45:00,
2013-03-08 09:50:00,67.5,48.8,30.21,North,355,4.0,8.0,51,0.00,,CLR,0.00,0.00,VWS V14.01,2013-03-08 14:50:00,
2013-03-08 09:55:00,67.8,49.0,30.21,North,5,0.0,6.0,51,0.00,,CLR,0.00,0.00,VWS V14.01,2013-03-08 14:55:00,
2013-03-08 10:00:00,68.0,47.6,30.21,North,351,6.0,6.0,48,0.00,,CLR,0.00,0.00,VWS V14.01,2013-03-08 15:00:00,
2013-03-08 10:05:00,68.3,47.3,30.21,North,9,1.0,4.0,47,0.00,,CLR,0.00,0.00,VWS V14.01,2013-03-08 15:05:00,
2013-03-08 10:10:00,68.8,47.2,30.21,NNE,33,2.0,5.0,46,0.00,,CLR,0.00,0.00,VWS V14.01,2013-03-08 15:10:00,
2013-03-08 10:15:00,69.2,47.0,30.21,NE,34,3.0,4.0,45,0.00,,CLR,0.00,0.00,VWS V14.01,2013-03-08 15:15:00,
2013-03-08 10:20:00,69.3,47.1,30.21,NE,47,2.0,8.0,45,0.00,,CLR,0.00,0.00,VWS V14.01,2013-03-08 15:20:00,
2013-03-08 10:25:00,69.6,47.3,30.22,North,5,3.0,4.0,45,0.00,,CLR,0.00,0.00,VWS V14.01,2013-03-08 15:25:00,
2013-03-08 10:30:00,69.7,46.8,30.21,NW,318,8.0,11.0,44,0.00,,CLR,0.00,0.00,VWS V14.01,2013-03-08 15:30:00,
2013-03-08 10:35:00,69.8,46.9,30.22,North,5,3.0,10.0,44,0.00,,CLR,0.00,0.00,VWS V14.01,2013-03-08 15:35:00,
2013-03-08 10:40:00,69.9,47.0,30.21,North,11,1.0,4.0,44,0.00,,CLR,0.00,0.00,VWS V14.01,2013-03-08 15:40:00,
2013-03-08 10:45:00,69.8,46.9,30.21,North,360,1.0,2.0,44,0.00,,CLR,0.00,0.00,VWS V14.01,2013-03-08 15:45:00,
2013-03-08 10:50:00,70.1,48.4,30.21,NNW,343,6.0,8.0,46,0.00,,CLR,0.00,0.00,VWS V14.01,2013-03-08 15:50:00,
2013-03-08 10:55:00,70.2,47.9,30.21,North,360,3.0,4.0,45,0.00,,CLR,0.00,0.00,VWS V14.01,2013-03-08 15:55:00,
2013-03-08 11:00:00,70.4,47.5,30.21,North,9,3.0,9.0,44,0.00,,CLR,0.00,0.00,VWS V14.01,2013-03-08 16:00:00,
2013-03-08 11:05:00,70.6,47.7,30.21,NE,53,3.0,4.0,44,0.00,,CLR,0.00,0.00,VWS V14.01,2013-03-08 16:05:00,
2013-03-08 11:10:00,70.8,47.8,30.20,NE,51,3.0,8.0,44,0.00,,CLR,0.00,0.00,VWS V14.01,2013-03-08 16:10:00,
2013-03-08 11:15:00,71.0,48.0,30.20,NNW,348,3.0,4.0,44,0.00,,CLR,0.00,0.00,VWS V14.01,2013-03-08 16:15:00,
2013-03-08 11:20:00,71.2,48.2,30.20,North,9,3.0,8.0,44,0.00,,CLR,0.00,0.00,VWS V14.01,2013-03-08 16:20:00,
2013-03-08 11:25:00,71.4,47.8,30.19,NNW,346,3.0,7.0,43,0.00,,CLR,0.00,0.00,VWS V14.01,2013-03-08 16:25:00,
2013-03-08 11:30:00,71.4,47.8,30.19,NNW,338,3.0,5.0,43,0.00,,CLR,0.00,0.00,VWS V14.01,2013-03-08 16:30:00,
2013-03-08 11:35:00,71.2,47.6,30.19,NNW,340,3.0,6.0,43,0.00,,CLR,0.00,0.00,VWS V14.01,2013-03-08 16:35:00,
2013-03-08 11:40:00,71.7,48.0,30.19,NE,55,5.0,9.0,43,0.00,,CLR,0.00,0.00,VWS V14.01,2013-03-08 16:40:00,
2013-03-08 11:45:00,72.3,48.6,30.19,North,355,3.0,5.0,43,0.00,,CLR,0.00,0.00,VWS V14.01,2013-03-08 16:45:00,
2013-03-08 11:50:00,72.6,48.2,30.19,NNW,347,1.0,3.0,42,0.00,,CLR,0.00,0.00,VWS V14.01,2013-03-08 16:50:00,
2013-03-08 11:55:00,72.7,48.3,30.19,NW,323,8.0,8.0,42,0.00,,CLR,0.00,0.00,VWS V14.01,2013-03-08 16:55:00,
2013-03-08 12:00:00,72.4,48.0,30.18,NNW,332,4.0,8.0,42,0.00,,CLR,0.00,0.00,VWS V14.01,2013-03-08 17:00:00,
2013-03-08 12:05:00,72.9,49.1,30.18,WNW,302,5.0,6.0,43,0.00,,CLR,0.00,0.00,VWS V14.01,2013-03-08 17:05:00,
2013-03-08 12:10:00,72.8,47.8,30.18,West,274,7.0,9.0,41,0.00,,CLR,0.00,0.00,VWS V14.01,2013-03-08 17:10:00,
2013-03-08 12:15:00,73.1,48.0,30.18,NW,304,5.0,7.0,41,0.00,,CLR,0.00,0.00,VWS V14.01,2013-03-08 17:15:00,
2013-03-08 12:20:00,72.7,47.7,30.18,NW,324,6.0,11.0,41,0.00,,CLR,0.00,0.00,VWS V14.01,2013-03-08 17:20:00,
2013-03-08 12:25:00,72.7,47.7,30.18,West,275,6.0,6.0,41,0.00,,CLR,0.00,0.00,VWS V14.01,2013-03-08 17:25:00,
2013-03-08 12:30:00,72.4,48.0,30.18,NNW,333,4.0,5.0,42,0.00,,CLR,0.00,0.00,VWS V14.01,2013-03-08 17:30:00,
2013-03-08 12:35:00,73.5,49.0,30.18,NW,321,2.0,5.0,42,0.00,,CLR,0.00,0.00,VWS V14.01,2013-03-08 17:35:00,
2013-03-08 12:40:00,73.3,47.5,30.17,NNE,28,2.0,3.0,40,0.00,,CLR,0.00,0.00,VWS V14.01,2013-03-08 17:40:00,
2013-03-08 12:45:00,73.5,47.7,30.17,NNW,343,1.0,5.0,40,0.00,,CLR,0.00,0.00,VWS V14.01,2013-03-08 17:45:00,
2013-03-08 12:50:00,73.9,48.1,30.17,NW,306,8.0,9.0,40,0.00,,CLR,0.00,0.00,VWS V14.01,2013-03-08 17:50:00,
2013-03-08 12:55:00,74.0,47.5,30.16,NE,53,0.0,5.0,39,0.00,,CLR,0.00,0.00,VWS V14.01,2013-03-08 17:55:00,
2013-03-08 13:00:00,74.2,47.0,30.16,North,355,4.0,6.0,38,0.00,,CLR,0.00,0.00,VWS V14.01,2013-03-08 18:00:00,
2013-03-08 13:05:00,73.8,46.6,30.16,NNW,338,5.0,6.0,38,0.00,,CLR,0.00,0.00,VWS V14.01,2013-03-08 18:05:00,
2013-03-08 13:10:00,74.2,47.0,30.16,WNW,303,8.0,8.0,38,0.00,,CLR,0.00,0.00,VWS V14.01,2013-03-08 18:10:00,
2013-03-08 13:15:00,74.1,46.2,30.15,NW,325,3.0,9.0,37,0.00,,CLR,0.00,0.00,VWS V14.01,2013-03-08 18:15:00,
2013-03-08 13:20:00,74.0,46.1,30.15,NNW,348,2.0,6.0,37,0.00,,CLR,0.00,0.00,VWS V14.01,2013-03-08 18:20:00,
2013-03-08 13:25:00,73.8,45.9,30.15,NW,325,4.0,4.0,37,0.00,,CLR,0.00,0.00,VWS V14.01,2013-03-08 18:25:00,
2013-03-08 13:30:00,74.2,45.6,30.15,North,350,4.0,5.0,36,0.00,,CLR,0.00,0.00,VWS V14.01,2013-03-08 18:30:00,
2013-03-08 13:35:00,74.7,44.5,30.15,North,9,6.0,8.0,34,0.00,,CLR,0.00,0.00,VWS V14.01,2013-03-08 18:35:00,
2013-03-08 13:40:00,74.7,46.0,30.14,NNW,345,3.0,9.0,36,0.00,,CLR,0.00,0.00,VWS V14.01,2013-03-08 18:40:00,
2013-03-08 13:45:00,74.8,46.1,30.14,NNW,339,4.0,7.0,36,0.00,,CLR,0.00,0.00,VWS V14.01,2013-03-08 18:45:00,
2013-03-08 13:50:00,74.5,46.5,30.14,WNW,303,4.0,4.0,37,0.00,,CLR,0.00,0.00,VWS V14.01,2013-03-08 18:50:00,
2013-03-08 13:55:00,74.8,46.1,30.14,North,5,4.0,7.0,36,0.00,,CLR,0.00,0.00,VWS V14.01,2013-03-08 18:55:00,
2013-03-08 14:00:00,75.4,46.6,30.14,NNE,18,3.0,3.0,36,0.00,,CLR,0.00,0.00,VWS V14.01,2013-03-08 19:00:00,
2013-03-08 14:05:00,75.2,45.7,30.14,NNW,341,5.0,7.0,35,0.00,,CLR,0.00,0.00,VWS V14.01,2013-03-08 19:05:00,
2013-03-08 14:10:00,75.4,45.9,30.13,NNE,23,1.0,3.0,35,0.00,,CLR,0.00,0.00,VWS V14.01,2013-03-08 19:10:00,
2013-03-08 14:15:00,75.3,45.8,30.14,West,279,5.0,9.0,35,0.00,,CLR,0.00,0.00,VWS V14.01,2013-03-08 19:15:00,
2013-03-08 14:20:00,75.5,46.0,30.14,North,5,5.0,8.0,35,0.00,,CLR,0.00,0.00,VWS V14.01,2013-03-08 19:20:00,
2013-03-08 14:25:00,75.5,44.4,30.13,NNE,17,2.0,7.0,33,0.00,,CLR,0.00,0.00,VWS V14.01,2013-03-08 19:25:00,
2013-03-08 14:30:00,75.6,45.3,30.13,NNW,344,3.0,6.0,34,0.00,,CLR,0.00,0.00,VWS V14.01,2013-03-08 19:30:00,
2013-03-08 14:35:00,75.8,45.5,30.13,North,5,0.0,3.0,34,0.00,,CLR,0.00,0.00,VWS V14.01,2013-03-08 19:35:00,
2013-03-08 14:40:00,75.7,45.4,30.13,NW,309,12.0,12.0,34,0.00,,CLR,0.00,0.00,VWS V14.01,2013-03-08 19:40:00,
2013-03-08 14:45:00,75.3,45.0,30.13,WNW,296,5.0,10.0,34,0.00,,CLR,0.00,0.00,VWS V14.01,2013-03-08 19:45:00,
2013-03-08 14:50:00,75.7,45.4,30.12,NW,310,7.0,9.0,34,0.00,,CLR,0.00,0.00,VWS V14.01,2013-03-08 19:50:00,
2013-03-08 14:55:00,75.9,44.8,30.12,WNW,284,7.0,8.0,33,0.00,,CLR,0.00,0.00,VWS V14.01,2013-03-08 19:55:00,
2013-03-08 15:00:00,75.3,44.2,30.12,WNW,286,3.0,5.0,33,0.00,,CLR,0.00,0.00,VWS V14.01,2013-03-08 20:00:00,
2013-03-08 15:05:00,75.5,45.2,30.12,NNW,328,3.0,6.0,34,0.00,,CLR,0.00,0.00,VWS V14.01,2013-03-08 20:05:00,
2013-03-08 15:10:00,76.0,45.6,30.12,NNW,335,1.0,5.0,34,0.00,,CLR,0.00,0.00,VWS V14.01,2013-03-08 20:10:00,
2013-03-08 15:15:00,76.4,46.0,30.12,ENE,57,4.0,5.0,34,0.00,,CLR,0.00,0.00,VWS V14.01,2013-03-08 20:15:00,
2013-03-08 15:20:00,76.1,45.7,30.11,NNW,328,9.0,9.0,34,0.00,,CLR,0.00,0.00,VWS V14.01,2013-03-08 20:20:00,
2013-03-08 15:25:00,76.3,45.1,30.12,NE,38,2.0,5.0,33,0.00,,CLR,0.00,0.00,VWS V14.01,2013-03-08 20:25:00,
2013-03-08 15:30:00,76.2,45.0,30.12,NNE,17,2.0,5.0,33,0.00,,CLR,0.00,0.00,VWS V14.01,2013-03-08 20:30:00,
2013-03-08 15:35:00,75.6,45.3,30.12,NNE,13,2.0,3.0,34,0.00,,CLR,0.00,0.00,VWS V14.01,2013-03-08 20:35:00,
2013-03-08 15:40:00,75.7,45.4,30.11,NNW,333,3.0,3.0,34,0.00,,CLR,0.00,0.00,VWS V14.01,2013-03-08 20:40:00,
2013-03-08 15:45:00,76.2,45.8,30.11,North,355,2.0,4.0,34,0.00,,CLR,0.00,0.00,VWS V14.01,2013-03-08 20:45:00,
2013-03-08 15:50:00,76.2,45.0,30.11,NNW,342,4.0,7.0,33,0.00,,CLR,0.00,0.00,VWS V14.01,2013-03-08 20:50:00,
2013-03-08 15:55:00,76.2,45.0,30.11,NW,304,3.0,5.0,33,0.00,,CLR,0.00,0.00,VWS V14.01,2013-03-08 20:55:00,
2013-03-08 16:00:00,76.3,45.1,30.11,North,5,1.0,3.0,33,0.00,,CLR,0.00,0.00,VWS V14.01,2013-03-08 21:00:00,
2013-03-08 16:05:00,76.6,43.7,30.11,North,9,3.0,4.0,31,0.00,,CLR,0.00,0.00,VWS V14.01,2013-03-08 21:05:00,
2013-03-08 16:10:00,76.3,44.3,30.11,NE,49,3.0,6.0,32,0.00,,CLR,0.00,0.00,VWS V14.01,2013-03-08 21:10:00,
2013-03-08 16:15:00,76.3,44.3,30.11,NW,312,8.0,8.0,32,0.00,,CLR,0.00,0.00,VWS V14.01,2013-03-08 21:15:00,
2013-03-08 16:20:00,76.6,44.6,30.11,NE,40,5.0,8.0,32,0.00,,CLR,0.00,0.00,VWS V14.01,2013-03-08 21:20:00,
2013-03-08 16:25:00,75.6,43.7,30.11,ENE,60,7.0,7.0,32,0.00,,CLR,0.00,0.00,VWS V14.01,2013-03-08 21:25:00,
2013-03-08 16:30:00,75.1,49.8,30.11,ESE,102,8.0,9.0,41,0.00,,CLR,0.00,0.00,VWS V14.01,2013-03-08 21:30:00,
2013-03-08 16:35:00,75.0,51.0,30.12,NE,49,3.0,6.0,43,0.00,,CLR,0.00,0.00,VWS V14.01,2013-03-08 21:35:00,
2013-03-08 16:40:00,75.1,51.1,30.12,ESE,117,2.0,4.0,43,0.00,,CLR,0.00,0.00,VWS V14.01,2013-03-08 21:40:00,
2013-03-08 16:45:00,74.9,50.9,30.12,NE,49,4.0,5.0,43,0.00,,CLR,0.00,0.00,VWS V14.01,2013-03-08 21:45:00,
2013-03-08 16:50:00,74.5,51.2,30.12,ENE,58,5.0,9.0,44,0.00,,CLR,0.00,0.00,VWS V14.01,2013-03-08 21:50:00,
2013-03-08 16:55:00,74.3,51.0,30.12,ENE,63,4.0,9.0,44,0.00,,CLR,0.00,0.00,VWS V14.01,2013-03-08 21:55:00,
2013-03-08 17:00:00,73.7,51.1,30.12,NE,48,2.0,6.0,45,0.00,,CLR,0.00,0.00,VWS V14.01,2013-03-08 22:00:00,
2013-03-08 17:05:00,73.6,51.0,30.12,ENE,77,5.0,10.0,45,0.00,,CLR,0.00,0.00,VWS V14.01,2013-03-08 22:05:00,
2013-03-08 17:10:00,73.5,50.9,30.12,East,85,5.0,7.0,45,0.00,,CLR,0.00,0.00,VWS V14.01,2013-03-08 22:10:00,
2013-03-08 17:15:00,73.2,51.2,30.12,East,84,2.0,7.0,46,0.00,,CLR,0.00,0.00,VWS V14.01,2013-03-08 22:15:00,
2013-03-08 17:20:00,73.1,51.7,30.12,NE,51,8.0,8.0,47,0.00,,CLR,0.00,0.00,VWS V14.01,2013-03-08 22:20:00,
2013-03-08 17:25:00,72.8,52.0,30.13,NE,49,9.0,11.0,48,0.00,,CLR,0.00,0.00,VWS V14.01,2013-03-08 22:25:00,
2013-03-08 17:30:00,72.3,52.1,30.13,NE,55,5.0,6.0,49,0.00,,CLR,0.00,0.00,VWS V14.01,2013-03-08 22:30:00,
2013-03-08 17:35:00,72.0,52.4,30.13,NE,53,3.0,4.0,50,0.00,,CLR,0.00,0.00,VWS V14.01,2013-03-08 22:35:00,
2013-03-08 17:40:00,71.9,52.3,30.13,East,98,2.0,6.0,50,0.00,,CLR,0.00,0.00,VWS V14.01,2013-03-08 22:40:00,
2013-03-08 17:45:00,71.6,52.0,30.13,East,84,2.0,9.0,50,0.00,,CLR,0.00,0.00,VWS V14.01,2013-03-08 22:45:00,
2013-03-08 17:50:00,71.5,52.4,30.13,East,80,3.0,6.0,51,0.00,,CLR,0.00,0.00,VWS V14.01,2013-03-08 22:50:00,
2013-03-08 17:55:00,71.3,52.8,30.14,ENE,74,3.0,10.0,52,0.00,,CLR,0.00,0.00,VWS V14.01,2013-03-08 22:55:00,
2013-03-08 18:00:00,71.1,53.1,30.14,ENE,61,2.0,8.0,53,0.00,,CLR,0.00,0.00,VWS V14.01,2013-03-08 23:00:00,
2013-03-08 18:05:00,70.9,52.9,30.14,ENE,62,5.0,7.0,53,0.00,,CLR,0.00,0.00,VWS V14.01,2013-03-08 23:05:00,
2013-03-08 18:10:00,70.6,52.7,30.14,NE,54,2.0,5.0,53,0.00,,CLR,0.00,0.00,VWS V14.01,2013-03-08 23:10:00,
2013-03-08 18:15:00,70.4,53.0,30.14,ENE,59,1.0,4.0,54,0.00,,CLR,0.00,0.00,VWS V14.01,2013-03-08 23:15:00,
2013-03-08 18:20:00,70.1,53.2,30.14,ENE,78,3.0,8.0,55,0.00,,CLR,0.00,0.00,VWS V14.01,2013-03-08 23:20:00,
2013-03-08 18:25:00,69.9,53.0,30.14,ENE,58,5.0,5.0,55,0.00,,CLR,0.00,0.00,VWS V14.01,2013-03-08 23:25:00,
2013-03-08 18:30:00,69.9,53.0,30.14,NE,39,4.0,5.0,55,0.00,,CLR,0.00,0.00,VWS V14.01,2013-03-08 23:30:00,
2013-03-08 18:35:00,69.7,53.3,30.15,NE,41,3.0,3.0,56,0.00,,CLR,0.00,0.00,VWS V14.01,2013-03-08 23:35:00,
2013-03-08 18:40:00,69.5,53.6,30.15,NE,44,6.0,6.0,57,0.00,,CLR,0.00,0.00,VWS V14.01,2013-03-08 23:40:00,
2013-03-08 18:45:00,69.3,53.4,30.15,NE,48,4.0,4.0,57,0.00,,CLR,0.00,0.00,VWS V14.01,2013-03-08 23:45:00,
2013-03-08 18:50:00,69.2,53.3,30.15,NE,55,3.0,3.0,57,0.00,,CLR,0.00,0.00,VWS V14.01,2013-03-08 23:50:00,
2013-03-08 18:55:00,69.0,53.2,30.15,NE,42,0.0,2.0,57,0.00,,CLR,0.00,0.00,VWS V14.01,2013-03-08 23:55:00,
2013-03-08 19:00:00,68.8,53.4,30.15,ENE,58,3.0,3.0,58,0.00,,CLR,0.00,0.00,VWS V14.01,2013-03-09 00:00:00,
2013-03-08 19:05:00,68.7,53.3,30.16,ENE,71,0.0,3.0,58,0.00,,CLR,0.00,0.00,VWS V14.01,2013-03-09 00:05:00,
2013-03-08 19:10:00,68.4,53.5,30.16,ENE,70,0.0,0.0,59,0.00,,CLR,0.00,0.00,VWS V14.01,2013-03-09 00:10:00,
2013-03-08 19:15:00,68.2,53.3,30.16,ENE,70,0.0,1.0,59,0.00,,CLR,0.00,0.00,VWS V14.01,2013-03-09 00:15:00,
2013-03-08 19:20:00,67.8,53.4,30.16,ENE,70,0.0,0.0,60,0.00,,CLR,0.00,0.00,VWS V14.01,2013-03-09 00:20:00,
2013-03-08 19:25:00,67.5,53.6,30.16,ENE,70,0.0,0.0,61,0.00,,CLR,0.00,0.00,VWS V14.01,2013-03-09 00:25:00,
2013-03-08 19:30:00,67.2,53.8,30.16,ENE,70,0.0,0.0,62,0.00,,CLR,0.00,0.00,VWS V14.01,2013-03-09 00:30:00,
2013-03-08 19:35:00,66.9,53.9,30.16,ENE,70,0.0,0.0,63,0.00,,CLR,0.00,0.00,VWS V14.01,2013-03-09 00:35:00,
2013-03-08 19:40:00,66.9,53.9,30.16,ENE,70,0.0,0.0,63,0.00,,CLR,0.00,0.00,VWS V14.01,2013-03-09 00:40:00,
2013-03-08 19:45:00,66.8,53.8,30.17,ENE,70,0.0,0.0,63,0.00,,CLR,0.00,0.00,VWS V14.01,2013-03-09 00:45:00,
2013-03-08 19:50:00,66.6,53.6,30.17,ENE,70,0.0,0.0,63,0.00,,CLR,0.00,0.00,VWS V14.01,2013-03-09 00:50:00,
2013-03-08 19:55:00,66.5,54.0,30.17,ENE,70,0.0,0.0,64,0.00,,CLR,0.00,0.00,VWS V14.01,2013-03-09 00:55:00,
2013-03-08 20:00:00,66.4,53.9,30.17,ENE,70,0.0,1.0,64,0.00,,CLR,0.00,0.00,VWS V14.01,2013-03-09 01:00:00,
2013-03-08 20:05:00,66.4,54.3,30.17,ENE,70,0.0,0.0,65,0.00,,CLR,0.00,0.00,VWS V14.01,2013-03-09 01:05:00,
2013-03-08 20:10:00,66.4,54.3,30.17,ENE,70,1.0,1.0,65,0.00,,CLR,0.00,0.00,VWS V14.01,2013-03-09 01:10:00,
2013-03-08 20:15:00,66.3,54.2,30.17,ENE,70,0.0,2.0,65,0.00,,CLR,0.00,0.00,VWS V14.01,2013-03-09 01:15:00,
2013-03-08 20:20:00,66.2,54.1,30.17,ENE,70,0.0,0.0,65,0.00,,CLR,0.00,0.00,VWS V14.01,2013-03-09 01:20:00,
2013-03-08 20:25:00,66.0,54.3,30.17,ENE,70,0.0,0.0,66,0.00,,CLR,0.00,0.00,VWS V14.01,2013-03-09 01:25:00,
2013-03-08 20:30:00,65.8,54.1,30.17,ENE,70,0.0,0.0,66,0.00,,CLR,0.00,0.00,VWS V14.01,2013-03-09 01:30:00,
2013-03-08 20:35:00,65.4,53.8,30.17,ENE,70,0.0,0.0,66,0.00,,CLR,0.00,0.00,VWS V14.01,2013-03-09 01:35:00,
2013-03-08 20:40:00,65.2,53.6,30.17,ENE,70,0.0,1.0,66,0.00,,CLR,0.00,0.00,VWS V14.01,2013-03-09 01:40:00,
2013-03-08 20:45:00,64.9,53.7,30.17,ENE,70,0.0,0.0,67,0.00,,CLR,0.00,0.00,VWS V14.01,2013-03-09 01:45:00,
2013-03-08 20:50:00,64.5,54.1,30.18,ENE,70,0.0,0.0,69,0.00,,CLR,0.00,0.00,VWS V14.01,2013-03-09 01:50:00,
2013-03-08 20:55:00,64.4,54.0,30.18,ENE,70,0.0,1.0,69,0.00,,CLR,0.00,0.00,VWS V14.01,2013-03-09 01:55:00,
2013-03-08 21:00:00,64.3,53.9,30.18,ENE,70,0.0,0.0,69,0.00,,CLR,0.00,0.00,VWS V14.01,2013-03-09 02:00:00,
2013-03-08 21:05:00,64.2,53.8,30.18,ENE,69,0.0,0.0,69,0.00,,CLR,0.00,0.00,VWS V14.01,2013-03-09 02:05:00,
2013-03-08 21:10:00,64.1,53.7,30.18,ENE,69,0.0,0.0,69,0.00,,CLR,0.00,0.00,VWS V14.01,2013-03-09 02:10:00,
2013-03-08 21:15:00,64.2,53.8,30.18,ENE,69,0.0,0.0,69,0.00,,CLR,0.00,0.00,VWS V14.01,2013-03-09 02:15:00,
2013-03-08 21:20:00,64.1,53.7,30.18,ENE,69,0.0,0.0,69,0.00,,CLR,0.00,0.00,VWS V14.01,2013-03-09 02:20:00,
2013-03-08 21:25:00,63.9,53.5,30.18,ENE,69,0.0,0.0,69,0.00,,CLR,0.00,0.00,VWS V14.01,2013-03-09 02:25:00,
2013-03-08 21:30:00,63.6,53.7,30.18,ENE,69,0.0,0.0,70,0.00,,CLR,0.00,0.00,VWS V14.01,2013-03-09 02:30:00,
2013-03-08 21:35:00,63.3,53.8,30.18,ENE,69,0.0,0.0,71,0.00,,CLR,0.00,0.00,VWS V14.01,2013-03-09 02:35:00,
2013-03-08 21:40:00,63.2,53.7,30.19,ENE,69,0.0,0.0,71,0.00,,CLR,0.00,0.00,VWS V14.01,2013-03-09 02:40:00,
2013-03-08 21:45:00,63.1,53.6,30.18,ENE,69,0.0,1.0,71,0.00,,CLR,0.00,0.00,VWS V14.01,2013-03-09 02:45:00,
2013-03-08 21:50:00,63.1,53.6,30.18,ENE,70,0.0,0.0,71,0.00,,CLR,0.00,0.00,VWS V14.01,2013-03-09 02:50:00,
2013-03-08 21:55:00,63.2,53.7,30.18,ENE,69,0.0,0.0,71,0.00,,CLR,0.00,0.00,VWS V14.01,2013-03-09 02:55:00,
2013-03-08 22:00:00,63.0,53.5,30.18,ENE,69,1.0,1.0,71,0.00,,CLR,0.00,0.00,VWS V14.01,2013-03-09 03:00:00,
2013-03-08 22:05:00,62.9,53.8,30.18,ENE,69,0.0,0.0,72,0.00,,CLR,0.00,0.00,VWS V14.01,2013-03-09 03:05:00,
2013-03-08 22:10:00,62.8,53.7,30.18,ENE,69,0.0,0.0,72,0.00,,CLR,0.00,0.00,VWS V14.01,2013-03-09 03:10:00,
2013-03-08 22:15:00,62.8,53.7,30.18,ENE,69,0.0,1.0,72,0.00,,CLR,0.00,0.00,VWS V14.01,2013-03-09 03:15:00,
2013-03-08 22:20:00,62.6,53.5,30.18,ENE,69,0.0,2.0,72,0.00,,CLR,0.00,0.00,VWS V14.01,2013-03-09 03:20:00,
2013-03-08 22:25:00,62.5,53.7,30.18,ENE,69,1.0,1.0,73,0.00,,CLR,0.00,0.00,VWS V14.01,2013-03-09 03:25:00,
2013-03-08 22:30:00,62.3,53.5,30.18,ENE,69,1.0,2.0,73,0.00,,CLR,0.00,0.00,VWS V14.01,2013-03-09 03:30:00,
2013-03-08 22:35:00,62.2,53.5,30.18,ENE,62,2.0,3.0,73,0.00,,CLR,0.00,0.00,VWS V14.01,2013-03-09 03:35:00,
2013-03-08 22:40:00,62.1,53.3,30.18,ENE,62,0.0,1.0,73,0.00,,CLR,0.00,0.00,VWS V14.01,2013-03-09 03:40:00,
2013-03-08 22:45:00,62.0,53.3,30.18,ENE,61,1.0,2.0,73,0.00,,CLR,0.00,0.00,VWS V14.01,2013-03-09 03:45:00,
2013-03-08 22:50:00,62.0,53.6,30.18,ENE,61,1.0,2.0,74,0.00,,CLR,0.00,0.00,VWS V14.01,2013-03-09 03:50:00,
2013-03-08 22:55:00,62.0,53.3,30.18,ENE,61,1.0,1.0,73,0.00,,CLR,0.00,0.00,VWS V14.01,2013-03-09 03:55:00,
2013-03-08 22:59:00,62.0,53.3,30.18,ENE,61,0.0,2.0,73,0.00,,CLR,0.00,0.00,VWS V14.01,2013-03-09 03:59:00,
2013-03-08 23:00:00,60.0,51.3,30.17,ENE,61,1.0,1.0,73,0.00,,CLR,0.00,0.00,VWS V14.01,2013-03-09 04:00:00,
2013-03-08 23:04:00,61.9,53.2,30.18,ENE,62,1.0,1.0,73,0.00,,CLR,0.00,0.00,VWS V14.01,2013-03-09 04:04:00,
2013-03-08 23:05:00,59.7,51.4,30.17,ENE,61,1.0,1.0,74,0.00,,CLR,0.00,0.00,VWS V14.01,2013-03-09 04:05:00,
2013-03-08 23:09:00,61.8,53.1,30.18,ENE,61,1.0,1.0,73,0.00,,CLR,0.00,0.00,VWS V14.01,2013-03-09 04:09:00,
2013-03-08 23:10:00,59.3,51.4,30.17,ENE,62,0.0,0.0,75,0.00,,CLR,0.00,0.00,VWS V14.01,2013-03-09 04:10:00,
2013-03-08 23:15:00,61.7,53.0,30.18,ENE,61,0.0,2.0,73,0.00,,CLR,0.00,0.00,VWS V14.01,2013-03-09 04:15:00,
2013-03-08 23:20:00,61.6,52.9,30.17,ENE,61,1.0,2.0,73,0.00,,CLR,0.00,0.00,VWS V14.01,2013-03-09 04:20:00,
2013-03-08 23:24:00,61.7,53.0,30.17,ENE,61,1.0,2.0,73,0.00,,CLR,0.00,0.00,VWS V14.01,2013-03-09 04:24:00,
2013-03-08 23:25:00,58.0,50.8,30.17,ENE,61,0.0,0.0,77,0.00,,CLR,0.00,0.00,VWS V14.01,2013-03-09 04:25:00,
2013-03-08 23:29:00,61.9,53.2,30.17,ENE,61,1.0,1.0,73,0.00,,CLR,0.00,0.00,VWS V14.01,2013-03-09 04:29:00,
2013-03-08 23:30:00,57.8,51.0,30.17,ENE,61,0.0,0.0,78,0.00,,CLR,0.00,0.00,VWS V14.01,2013-03-09 04:30:00,
2013-03-08 23:34:00,62.0,52.5,30.17,ENE,62,1.0,1.0,71,0.00,,CLR,0.00,0.00,VWS V14.01,2013-03-09 04:34:00,
2013-03-08 23:35:00,57.5,50.7,30.16,ENE,61,0.0,0.0,78,0.00,,CLR,0.00,0.00,VWS V14.01,2013-03-09 04:35:00,
2013-03-08 23:39:00,62.0,52.1,30.17,ENE,61,1.0,1.0,70,0.00,,CLR,0.00,0.00,VWS V14.01,2013-03-09 04:39:00,
2013-03-08 23:40:00,57.2,50.4,30.17,ENE,61,0.0,0.0,78,0.00,,CLR,0.00,0.00,VWS V14.01,2013-03-09 04:40:00,
2013-03-08 23:44:00,62.0,52.1,30.16,ENE,61,0.0,1.0,70,0.00,,CLR,0.00,0.00,VWS V14.01,2013-03-09 04:44:00,
2013-03-08 23:45:00,57.0,50.2,30.16,ENE,61,0.0,0.0,78,0.00,,CLR,0.00,0.00,VWS V14.01,2013-03-09 04:45:00,
2013-03-08 23:50:00,56.9,50.1,30.16,ENE,61,0.0,0.0,78,0.00,,CLR,0.00,0.00,VWS V14.01,2013-03-09 04:50:00,
2013-03-08 23:55:00,61.8,51.9,30.16,North,0,0.0,0.0,70,0.00,,CLR,0.00,0.00,VWS V14.01,2013-03-09 04:55:00,